Weather at Robertson Airport

Public forecast

Using degrees Fahrenheit for public forecast. Weather courtesy of forecast.io.

Closest aviation weather report (METAR) to Robertson Airport

Closest report is Searcy Municipal Airport, 26.1 nm (48.3 km) W. Retrieved 2020/09/22 13:28 UTC (0 seconds ago):

KSRC 221328Z AUTO 13004KT 10SM BKN017 OVC095 19/17 A3020 RMK AO2

Closest aviation forecast (TAF) to Robertson Airport

Closest forecast is Jonesboro Municipal Airport, 47.3 nm (87.6 km) NE. Retrieved 2020/09/22 12:22 UTC (48 minutes ago):

TAF KJBR 221120Z 2212/2312 12003KT P6SM BKN100 FM221800 10006KT P6SM VCSH BKN100 FM230000 VRB03KT P6SM VCSH OVC100 FM230400 VRB03KT P6SM -SHRA OVC050